createdAt,value
2018-09-23T00:01:09.215Z,76.90
2018-09-23T00:03:37.179Z,77.60
2018-09-23T00:06:05.659Z,77.30
2018-09-23T00:08:34.812Z,76.10
2018-09-23T00:11:02.690Z,75.70
2018-09-23T00:13:30.599Z,75.70
2018-09-23T00:15:58.359Z,76.40
2018-09-23T00:18:26.874Z,76.40
2018-09-23T00:20:54.733Z,77.20
2018-09-23T00:23:22.476Z,76.90
2018-09-23T00:25:53.521Z,77.00
2018-09-23T00:28:22.056Z,77.50
2018-09-23T00:31:06.458Z,77.30
2018-09-23T00:33:36.532Z,77.40
2018-09-23T00:36:08.428Z,77.10
2018-09-23T00:38:37.670Z,77.40
2018-09-23T00:41:06.085Z,77.00
2018-09-23T00:43:37.593Z,76.70
2018-09-23T00:46:06.401Z,77.30
2018-09-23T00:48:49.028Z,77.90
2018-09-23T01:04:19.176Z,77.30
2018-09-23T01:06:47.677Z,76.30
2018-09-23T01:09:18.612Z,76.70
2018-09-23T01:11:47.273Z,77.90
2018-09-23T01:14:20.924Z,77.20
2018-09-23T01:16:50.350Z,77.60
2018-09-23T01:19:20.612Z,77.40
2018-09-23T01:24:22.910Z,77.60
2018-09-23T01:26:51.123Z,78.00
2018-09-23T01:29:19.120Z,77.60
2018-09-23T01:31:47.942Z,77.30
2018-09-23T01:34:17.885Z,77.30
2018-09-23T01:36:46.171Z,78.00
2018-09-23T01:39:18.435Z,77.20
2018-09-23T01:41:47.006Z,77.60
2018-09-23T01:47:00.532Z,77.90
2018-09-23T01:49:28.923Z,77.90
2018-09-23T01:52:11.855Z,77.10
2018-09-23T01:54:49.949Z,76.40
2018-09-23T03:46:05.008Z,81.00
2018-09-23T03:48:32.757Z,81.10
2018-09-23T03:51:00.512Z,81.80
2018-09-23T03:53:28.378Z,81.00
2018-09-23T03:55:56.069Z,80.90
2018-09-23T03:58:23.832Z,81.00
2018-09-23T04:00:51.556Z,80.90
2018-09-23T04:03:19.184Z,81.10
2018-09-23T04:05:46.913Z,80.50
2018-09-23T04:08:14.717Z,80.30
2018-09-23T04:10:42.589Z,80.40
2018-09-23T04:13:10.643Z,80.50
2018-09-23T04:15:38.548Z,80.90
2018-09-23T04:18:07.863Z,81.20
2018-09-23T04:20:35.811Z,81.10
2018-09-23T04:23:03.567Z,81.60
2018-09-23T04:25:31.489Z,81.60
2018-09-23T04:27:59.357Z,82.00
2018-09-23T04:30:27.193Z,81.60
2018-09-23T04:32:55.036Z,82.00
2018-09-23T04:35:22.845Z,82.00
2018-09-23T04:37:50.731Z,81.90
2018-09-23T04:40:18.860Z,82.40
2018-09-23T04:42:47.239Z,82.00
2018-09-23T04:45:15.065Z,82.00
2018-09-23T04:47:42.832Z,81.70
2018-09-23T04:50:10.594Z,82.30
2018-09-23T04:52:38.495Z,82.00
2018-09-23T04:55:06.401Z,82.10
2018-09-23T04:57:34.277Z,82.20
2018-09-23T05:00:02.035Z,81.60
2018-09-23T05:02:29.847Z,82.70
2018-09-23T05:04:57.748Z,81.80
2018-09-23T05:07:25.610Z,82.20
2018-09-23T05:09:54.020Z,82.30
2018-09-23T05:12:21.710Z,82.10
2018-09-23T05:14:49.485Z,82.30
2018-09-23T05:17:17.384Z,82.20
2018-09-23T05:19:45.129Z,82.40
2018-09-23T05:22:12.968Z,82.50
2018-09-23T05:24:40.736Z,82.90
2018-09-23T05:27:08.558Z,82.90
2018-09-23T05:29:36.226Z,82.80
2018-09-23T05:32:03.940Z,82.90
2018-09-23T05:34:31.689Z,82.40
2018-09-23T05:36:59.423Z,82.20
2018-09-23T05:39:27.136Z,82.10
2018-09-23T05:41:54.782Z,83.10
2018-09-23T05:44:22.593Z,82.90
2018-09-23T05:46:50.815Z,82.70
2018-09-23T05:49:18.821Z,81.90
2018-09-23T05:51:46.606Z,82.50
2018-09-23T05:54:14.345Z,82.10
2018-09-23T05:56:42.079Z,82.20
2018-09-23T05:59:10.540Z,82.90
2018-09-23T06:01:38.234Z,82.40
2018-09-23T06:04:06.104Z,81.70
2018-09-23T06:18:45.712Z,82.50
2018-09-23T06:21:13.303Z,82.40
2018-09-23T06:23:41.026Z,82.50
2018-09-23T06:26:08.542Z,81.10
2018-09-23T06:28:36.055Z,81.60
2018-09-23T06:31:24.074Z,82.30
2018-09-23T06:33:53.259Z,81.60
2018-09-23T06:36:21.148Z,82.10
2018-09-23T06:38:54.270Z,81.70
2018-09-23T06:41:25.000Z,82.30
2018-09-23T06:44:04.317Z,81.70
2018-09-23T06:46:34.908Z,83.40
2018-09-23T06:49:04.567Z,81.60
2018-09-23T06:51:41.785Z,81.60
2018-09-23T06:54:15.100Z,82.20
2018-09-23T06:56:44.528Z,82.70
2018-09-23T06:59:14.659Z,81.60
2018-09-23T07:01:43.096Z,82.60
2018-09-23T07:04:13.286Z,82.30
2018-09-23T07:06:44.103Z,82.30
2018-09-23T07:09:13.680Z,81.30
2018-09-23T07:11:44.793Z,82.50
2018-09-23T07:14:17.610Z,82.20
2018-09-23T07:16:46.537Z,82.80
2018-09-23T07:19:24.363Z,82.70
2018-09-23T07:21:58.587Z,82.10
2018-09-23T07:24:28.934Z,81.80
2018-09-23T07:27:02.455Z,83.50
2018-09-23T07:32:18.986Z,83.30
2018-09-23T07:34:49.525Z,83.30
2018-09-23T07:37:18.769Z,83.20
2018-09-23T07:39:54.184Z,85.50
2018-09-23T07:42:31.281Z,86.30
2018-09-23T07:45:02.236Z,85.90
2018-09-23T07:47:30.799Z,87.00
2018-09-23T07:49:59.799Z,85.30
2018-09-23T07:52:28.854Z,85.00
2018-09-23T07:54:59.615Z,86.70
2018-09-23T07:57:28.316Z,85.60
2018-09-23T07:59:58.527Z,87.00
2018-09-23T08:02:26.615Z,87.00
2018-09-23T08:05:00.348Z,88.80
2018-09-23T08:07:29.365Z,89.20
2018-09-23T08:10:01.103Z,88.80
2018-09-23T08:15:15.516Z,88.40
2018-09-23T08:17:47.121Z,88.70
2018-09-23T08:20:18.915Z,88.90
2018-09-23T08:22:47.005Z,88.80
2018-09-23T08:25:16.914Z,89.50
2018-09-23T08:27:47.034Z,89.70
2018-09-23T08:30:16.004Z,90.10
2018-09-23T08:32:45.270Z,90.60
2018-09-23T08:35:17.766Z,89.90
2018-09-23T08:37:46.328Z,90.40
2018-09-23T08:40:18.200Z,90.10
2018-09-23T08:42:47.962Z,90.40
2018-09-23T08:45:18.716Z,90.30
2018-09-23T08:47:48.527Z,90.80
2018-09-23T08:50:17.122Z,91.20
2018-09-23T08:52:46.703Z,91.40
2018-09-23T08:55:14.325Z,91.40
2018-09-23T08:57:44.222Z,91.40
2018-09-23T09:00:20.075Z,91.00
2018-09-23T09:02:49.374Z,91.80
2018-09-23T09:05:18.745Z,90.90
2018-09-23T09:07:47.971Z,91.40
2018-09-23T09:10:15.715Z,91.40
2018-09-23T09:12:45.878Z,91.60
2018-09-23T09:15:15.463Z,91.70
2018-09-23T09:17:45.022Z,92.30
2018-09-23T09:20:14.508Z,91.50
2018-09-23T09:22:43.380Z,92.00
2018-09-23T09:25:11.728Z,92.20
2018-09-23T09:27:44.708Z,92.20
2018-09-23T09:30:14.198Z,92.50
2018-09-23T09:32:42.965Z,90.90
2018-09-23T09:35:11.313Z,91.60
2018-09-23T09:37:39.322Z,91.40
2018-09-23T09:40:09.676Z,91.90
2018-09-23T09:42:37.872Z,91.80
2018-09-23T09:45:06.885Z,91.10
2018-09-23T09:47:37.759Z,92.20
2018-09-23T09:50:06.276Z,90.60
2018-09-23T09:52:38.547Z,91.20
2018-09-23T09:55:06.839Z,91.40
2018-09-23T10:06:15.303Z,91.00
2018-09-23T10:08:44.276Z,90.90
2018-09-23T10:11:12.941Z,90.20
2018-09-23T10:13:40.867Z,90.90
2018-09-23T10:16:09.259Z,90.40
2018-09-23T10:18:38.149Z,90.70
2018-09-23T10:21:07.083Z,90.50
2018-09-23T10:23:37.155Z,90.90
2018-09-23T10:26:04.815Z,90.40
2018-09-23T10:28:33.062Z,90.90
2018-09-23T10:31:05.265Z,90.50
2018-09-23T10:33:34.395Z,90.20
2018-09-23T10:36:02.591Z,90.00
2018-09-23T10:38:34.900Z,89.80
2018-09-23T10:41:03.788Z,88.40
2018-09-23T10:43:32.104Z,89.00
2018-09-23T10:46:00.130Z,88.90
2018-09-23T10:48:27.852Z,86.90
2018-09-23T10:50:56.930Z,89.00
2018-09-23T10:53:27.558Z,89.00
2018-09-23T10:55:55.935Z,89.40
2018-09-23T10:58:25.792Z,89.30
2018-09-23T11:01:04.351Z,87.40
2018-09-23T11:03:32.914Z,87.90
2018-09-23T11:06:06.113Z,86.80
2018-09-23T11:08:34.522Z,86.40
2018-09-23T11:11:03.784Z,87.00
2018-09-23T11:13:36.668Z,85.50
2018-09-23T11:16:06.034Z,87.10
2018-09-23T11:18:36.869Z,85.60
2018-09-23T11:21:05.087Z,85.40
2018-09-23T11:23:34.250Z,86.00
2018-09-23T11:26:02.599Z,86.40
2018-09-23T11:28:32.415Z,83.90
2018-09-23T11:31:02.328Z,83.00
2018-09-23T11:33:32.746Z,84.90
2018-09-23T11:36:01.840Z,85.40
2018-09-23T11:38:31.503Z,85.10
2018-09-23T11:41:00.598Z,84.40
2018-09-23T11:43:29.191Z,83.90
2018-09-23T11:45:56.932Z,84.30
2018-09-23T11:48:25.246Z,83.60
2018-09-23T11:50:52.848Z,83.40
2018-09-23T11:53:21.173Z,82.70
2018-09-23T11:55:50.297Z,82.70
2018-09-23T11:58:27.742Z,81.20
2018-09-23T12:01:12.746Z,82.30
2018-09-23T12:03:40.619Z,82.00
2018-09-23T12:06:08.686Z,81.60
2018-09-23T12:08:47.173Z,81.60
2018-09-23T12:11:15.813Z,82.50
2018-09-23T12:16:30.372Z,82.50
2018-09-23T12:18:59.398Z,81.60
2018-09-23T12:21:28.298Z,81.80
2018-09-23T12:23:56.359Z,80.90
2018-09-23T12:26:25.895Z,80.80
2018-09-23T12:28:54.222Z,80.80
2018-09-23T12:31:21.943Z,79.90
2018-09-23T12:33:50.272Z,80.40
2018-09-23T12:36:18.824Z,79.00
2018-09-23T12:38:47.695Z,78.70
2018-09-23T12:41:15.502Z,79.10
2018-09-23T12:43:43.748Z,79.70
2018-09-23T12:46:11.960Z,78.90
2018-09-23T12:48:40.253Z,78.80
2018-09-23T12:51:07.982Z,79.10
2018-09-23T12:53:36.607Z,79.00
2018-09-23T12:56:04.331Z,78.70
2018-09-23T12:58:34.755Z,79.50
2018-09-23T13:01:03.718Z,79.00
2018-09-23T13:03:32.007Z,79.10
2018-09-23T13:06:03.938Z,79.00
2018-09-23T13:08:41.880Z,78.30
2018-09-23T13:11:13.128Z,78.20
2018-09-23T13:13:42.834Z,78.10
2018-09-23T13:16:16.835Z,77.60
2018-09-23T13:18:44.750Z,77.00
2018-09-23T13:21:18.327Z,77.10
2018-09-23T13:23:47.177Z,77.20
2018-09-23T13:26:17.321Z,77.20
2018-09-23T13:28:48.543Z,77.10
2018-09-23T13:31:18.072Z,77.00
2018-09-23T13:33:48.803Z,76.90
2018-09-23T13:36:17.815Z,76.70
2018-09-23T13:38:46.449Z,76.50
2018-09-23T13:41:22.894Z,76.10
2018-09-23T13:43:52.708Z,76.30
2018-09-23T13:46:20.595Z,76.40
2018-09-23T13:48:48.361Z,76.20
2018-09-23T13:51:21.692Z,76.20
2018-09-23T13:53:50.019Z,75.80
2018-09-23T13:56:25.837Z,75.80
2018-09-23T13:58:54.885Z,75.20
2018-09-23T14:01:23.960Z,75.80
2018-09-23T14:03:57.270Z,75.90
2018-09-23T14:06:25.972Z,75.70
2018-09-23T14:08:55.146Z,76.10
2018-09-23T14:11:23.398Z,76.20
2018-09-23T14:13:53.982Z,77.00
2018-09-23T14:16:22.751Z,77.60
2018-09-23T14:18:51.926Z,79.10
2018-09-23T14:21:19.708Z,79.80
2018-09-23T14:23:49.894Z,80.10
2018-09-23T14:26:28.887Z,81.50
2018-09-23T14:29:03.001Z,82.10
2018-09-23T14:31:32.683Z,83.50
2018-09-23T14:34:00.775Z,85.60
2018-09-23T14:36:33.966Z,87.50
2018-09-23T14:39:04.267Z,88.00
2018-09-23T14:41:37.255Z,88.70
2018-09-23T14:44:06.944Z,90.30
2018-09-23T14:46:36.324Z,91.40
2018-09-23T14:49:10.785Z,91.70
2018-09-23T14:51:44.882Z,92.00
2018-09-23T14:54:15.284Z,92.40
2018-09-23T14:56:46.784Z,92.70
2018-09-23T14:59:17.450Z,92.40
2018-09-23T15:01:46.723Z,92.60
2018-09-23T15:04:17.533Z,92.50
2018-09-23T15:06:45.703Z,92.20
2018-09-23T15:09:17.137Z,92.70
2018-09-23T15:11:51.916Z,93.60
2018-09-23T15:14:20.288Z,93.20
2018-09-23T15:16:48.304Z,93.60
2018-09-23T15:19:17.118Z,94.00
2018-09-23T15:21:50.420Z,94.30
2018-09-23T15:24:22.225Z,93.70
2018-09-23T15:26:55.924Z,93.20
2018-09-23T15:29:26.161Z,93.80
2018-09-23T15:31:56.287Z,93.50
2018-09-23T15:34:25.915Z,92.90
2018-09-23T15:36:59.611Z,92.90
2018-09-23T15:39:33.134Z,92.70
2018-09-23T15:42:03.937Z,92.60
2018-09-23T15:44:37.072Z,92.80
2018-09-23T15:47:13.203Z,92.70
2018-09-23T15:49:50.346Z,92.90
2018-09-23T15:52:26.239Z,92.40
2018-09-23T15:55:04.426Z,93.00
2018-09-23T15:57:33.549Z,92.50
2018-09-23T16:00:08.011Z,92.20
2018-09-23T16:02:40.077Z,92.80
2018-09-23T16:05:13.247Z,92.60
2018-09-23T16:07:41.602Z,92.30
2018-09-23T16:10:13.202Z,92.40
2018-09-23T16:12:49.935Z,92.20
2018-09-23T16:15:20.154Z,92.90
2018-09-23T16:17:55.349Z,92.60
2018-09-23T16:20:32.966Z,91.00
2018-09-23T16:25:45.471Z,91.20
2018-09-23T16:28:16.339Z,90.00
2018-09-23T16:31:05.779Z,91.00
2018-09-23T16:33:35.012Z,90.00
2018-09-23T16:36:14.460Z,89.90
2018-09-23T16:38:43.511Z,90.50
2018-09-23T16:41:13.820Z,89.40
2018-09-23T16:43:41.636Z,89.10
2018-09-23T16:46:12.750Z,89.30
2018-09-23T16:51:28.844Z,90.50
2018-09-23T16:53:57.259Z,88.90
2018-09-23T16:56:25.706Z,88.80
2018-09-23T16:58:55.162Z,90.00
2018-09-23T17:01:23.354Z,89.10
2018-09-23T17:03:55.263Z,88.00
2018-09-23T17:06:28.622Z,86.80
2018-09-23T17:08:56.411Z,86.10
2018-09-23T17:11:24.632Z,86.20
2018-09-23T17:13:53.055Z,88.90
2018-09-23T17:16:22.883Z,87.80
2018-09-23T17:18:52.541Z,89.20
2018-09-23T17:21:25.068Z,88.20
2018-09-23T17:23:52.701Z,87.60
2018-09-23T17:26:21.775Z,87.30
2018-09-23T17:28:50.812Z,86.90
2018-09-23T17:31:20.056Z,86.80
2018-09-23T17:34:00.067Z,86.70
2018-09-23T17:36:34.085Z,85.10
2018-09-23T17:39:02.746Z,82.70
2018-09-23T17:41:31.842Z,85.10
2018-09-23T17:44:00.900Z,85.00
2018-09-23T17:46:29.912Z,82.30
2018-09-23T17:48:58.991Z,83.10
2018-09-23T17:51:29.965Z,82.90
2018-09-23T17:53:58.355Z,82.50
2018-09-23T17:56:29.115Z,83.40
2018-09-23T17:59:05.922Z,81.30
2018-09-23T18:01:34.805Z,82.40
2018-09-23T18:04:07.279Z,81.60
2018-09-23T18:06:35.573Z,81.50
2018-09-23T18:11:41.150Z,78.80
2018-09-23T18:14:14.853Z,79.40
2018-09-23T18:19:34.536Z,79.20
2018-09-23T18:22:13.091Z,79.00
2018-09-23T18:24:54.426Z,79.40
2018-09-23T18:27:26.784Z,79.70
2018-09-23T18:32:58.648Z,78.50
2018-09-23T18:35:37.116Z,78.10
2018-09-23T18:38:15.135Z,77.80
2018-09-23T18:43:39.644Z,78.20
2018-09-23T18:46:14.072Z,77.10
2018-09-23T18:48:45.958Z,76.00
2018-09-23T18:51:18.980Z,77.80
2018-09-23T18:56:06.990Z,77.00
2018-09-23T18:58:41.440Z,77.60
2018-09-23T19:01:15.143Z,77.50
2018-09-23T19:03:45.169Z,76.60
2018-09-23T19:06:20.781Z,76.80
2018-09-23T19:08:50.989Z,76.30
2018-09-23T19:11:25.501Z,77.10
2018-09-23T19:14:07.805Z,75.60
2018-09-23T19:16:38.786Z,76.80
2018-09-23T19:19:14.575Z,77.30
2018-09-23T19:21:50.621Z,75.60
2018-09-23T19:24:20.462Z,76.10
2018-09-23T19:26:53.437Z,76.40
2018-09-23T19:29:25.734Z,75.30
2018-09-23T19:31:57.708Z,75.10
2018-09-23T19:34:32.514Z,75.30
2018-09-23T19:37:02.444Z,76.60
2018-09-23T19:39:33.567Z,74.30
2018-09-23T19:44:54.386Z,74.70
2018-09-23T19:47:40.806Z,73.90
2018-09-23T19:50:18.697Z,73.90
2018-09-23T19:52:47.044Z,75.30
2018-09-23T19:55:25.907Z,75.60
2018-09-23T19:58:01.805Z,75.80
2018-09-23T20:00:35.778Z,75.10
2018-09-23T20:03:12.014Z,72.40
2018-09-23T20:05:43.897Z,72.90
2018-09-23T20:08:24.823Z,74.40
2018-09-23T20:11:00.149Z,74.00
2018-09-23T20:13:36.644Z,73.60
2018-09-23T20:16:09.264Z,73.40
2018-09-23T20:18:38.745Z,73.20
2018-09-23T20:21:12.812Z,73.80
2018-09-23T20:23:42.248Z,73.40
2018-09-23T20:26:10.180Z,74.40
2018-09-23T20:28:39.761Z,73.70
2018-09-23T20:31:07.528Z,73.30
2018-09-23T20:33:35.931Z,73.00
2018-09-23T20:36:04.856Z,72.50
2018-09-23T20:38:33.320Z,73.80
2018-09-23T20:41:01.631Z,73.60
2018-09-23T20:43:30.499Z,73.70
2018-09-23T20:45:58.380Z,74.60
2018-09-23T20:48:26.089Z,73.30
2018-09-23T20:50:53.861Z,72.40
2018-09-23T20:53:21.582Z,72.90
2018-09-23T20:55:49.259Z,72.30
2018-09-23T20:58:16.827Z,72.50
2018-09-23T21:00:44.472Z,70.60
2018-09-23T21:03:12.212Z,72.00
2018-09-23T21:05:39.857Z,73.90
2018-09-23T21:08:07.551Z,73.00
2018-09-23T21:10:35.242Z,72.00
2018-09-23T21:13:03.000Z,72.40
2018-09-23T21:15:30.747Z,72.40
2018-09-23T21:17:58.497Z,73.50
2018-09-23T21:20:26.144Z,73.10
2018-09-23T21:22:54.647Z,73.00
2018-09-23T21:25:22.258Z,72.50
2018-09-23T21:27:49.951Z,72.60
2018-09-23T21:30:17.668Z,70.90
2018-09-23T21:32:45.571Z,72.70
2018-09-23T21:35:13.304Z,72.90
2018-09-23T21:37:41.249Z,72.00
2018-09-23T21:40:09.450Z,70.60
2018-09-23T21:42:37.199Z,73.00
2018-09-23T21:45:04.975Z,73.00
2018-09-23T21:47:33.733Z,71.60
2018-09-23T21:50:01.572Z,72.00
2018-09-23T21:52:29.297Z,72.50
2018-09-23T21:55:01.671Z,72.80
2018-09-23T21:57:29.631Z,73.20
2018-09-23T21:59:57.358Z,73.30
2018-09-23T22:02:24.930Z,72.70
2018-09-23T22:04:52.515Z,72.60
2018-09-23T22:07:20.273Z,72.20
2018-09-23T22:09:47.956Z,71.50
2018-09-23T22:12:15.499Z,72.60
2018-09-23T22:14:44.208Z,72.00
2018-09-23T22:17:11.812Z,72.50
2018-09-23T22:19:39.445Z,72.10
2018-09-23T22:22:07.832Z,73.70
2018-09-23T22:24:35.411Z,73.30
2018-09-23T22:27:03.178Z,73.60
2018-09-23T22:29:30.892Z,72.30
2018-09-23T22:31:58.562Z,73.30
2018-09-23T22:34:26.302Z,74.00
2018-09-23T22:36:54.202Z,74.20
2018-09-23T22:39:21.863Z,75.40
2018-09-23T22:41:49.707Z,75.40
2018-09-23T22:44:17.841Z,75.20
2018-09-23T22:46:46.273Z,75.10
2018-09-23T22:49:14.003Z,74.70
2018-09-23T22:51:41.765Z,75.20
2018-09-23T22:54:09.561Z,74.80
2018-09-23T22:56:37.276Z,74.50
2018-09-23T22:59:04.935Z,74.00
2018-09-23T23:01:32.550Z,75.30
2018-09-23T23:04:00.151Z,75.20
2018-09-23T23:06:28.043Z,75.40
2018-09-23T23:08:55.624Z,76.10
2018-09-23T23:11:23.254Z,75.90
2018-09-23T23:13:50.857Z,75.00
2018-09-23T23:16:18.719Z,74.70
2018-09-23T23:18:46.315Z,75.00
2018-09-23T23:21:13.934Z,75.00
2018-09-23T23:23:41.982Z,75.80
2018-09-23T23:26:09.650Z,75.10
2018-09-23T23:28:37.253Z,74.90
2018-09-23T23:31:04.773Z,75.10
2018-09-23T23:33:32.400Z,75.80
2018-09-23T23:35:59.908Z,75.20
2018-09-23T23:38:27.471Z,76.10
2018-09-23T23:40:54.995Z,76.10
2018-09-23T23:43:22.535Z,75.30
2018-09-23T23:45:50.323Z,76.30
2018-09-23T23:48:17.807Z,75.40
2018-09-23T23:50:45.351Z,75.80
2018-09-23T23:53:13.131Z,76.00
2018-09-23T23:55:40.698Z,75.40
2018-09-23T23:58:08.269Z,75.00
